Time;durP1;ratioP1;P1;durP2;ratioP2;P2;SDS_P1;SDS_P2;PMS_P1;PMS_P2;Temp;Humidity;BMP_temperature;BMP_pressure;BME280_temperature;BME280_humidity;BME280_pressure;Samples;Min_cycle;Max_cycle;Signal;HPM_P1;HPM_P2
2021/11/19 00:00:29;;;;;;;0.30;0.20;;;;;;;6.95;100.00;101691.56;5022878;28;20456;-51
2021/11/19 00:02:55;;;;;;;0.90;0.90;;;;;;;6.99;100.00;101682.81;5024865;28;20550;-50
2021/11/19 00:05:22;;;;;;;0.30;0.20;;;;;;;7.09;100.00;101687.28;5013347;28;21057;-50
2021/11/19 00:07:49;;;;;;;0.30;0.20;;;;;;;7.12;100.00;101694.34;5026649;28;20503;-50
2021/11/19 00:10:16;;;;;;;0.30;0.20;;;;;;;7.19;100.00;101693.56;5025259;28;20498;-51
2021/11/19 00:12:43;;;;;;;0.30;0.20;;;;;;;7.25;100.00;101683.00;5019553;28;20456;-50
2021/11/19 00:15:10;;;;;;;0.30;0.20;;;;;;;7.38;100.00;101676.94;5020305;28;20592;-50
2021/11/19 00:17:38;;;;;;;0.30;0.20;;;;;;;7.43;100.00;101682.28;5026318;28;20954;-50
2021/11/19 00:20:08;;;;;;;0.30;0.20;;;;;;;7.51;100.00;101687.59;5025952;28;20474;-50
2021/11/19 00:22:37;;;;;;;0.30;0.20;;;;;;;7.51;100.00;101687.59;5025889;28;20489;-50
2021/11/19 00:25:05;;;;;;;0.30;0.20;;;;;;;7.46;100.00;101687.56;5026243;28;20526;-50
2021/11/19 00:27:32;;;;;;;0.90;0.87;;;;;;;7.57;100.00;101690.28;5020138;28;20447;-50
2021/11/19 00:30:00;;;;;;;0.30;0.20;;;;;;;7.64;100.00;101695.63;5018879;28;20461;-50
2021/11/19 00:32:26;;;;;;;0.30;0.20;;;;;;;7.76;100.00;101692.16;5024118;28;20874;-51
2021/11/19 00:34:53;;;;;;;0.30;0.20;;;;;;;7.84;100.00;101697.50;5019397;28;20469;-50
2021/11/19 00:37:21;;;;;;;0.30;0.20;;;;;;;7.86;100.00;101698.41;5025331;28;20448;-50
2021/11/19 00:39:48;;;;;;;0.30;0.20;;;;;;;7.85;100.00;101693.97;5026086;28;20963;-50
2021/11/19 00:42:15;;;;;;;0.30;0.20;;;;;;;7.89;100.00;101691.34;5020448;28;20523;-50
2021/11/19 00:44:41;;;;;;;0.30;0.20;;;;;;;7.95;100.00;101698.47;5018815;28;20993;-50
2021/11/19 00:47:09;;;;;;;0.40;0.40;;;;;;;8.06;100.00;101702.00;5024897;28;20526;-50
2021/11/19 00:49:40;;;;;;;0.30;0.20;;;;;;;7.95;100.00;101701.09;5025930;28;20451;-50
2021/11/19 00:52:08;;;;;;;0.30;0.20;;;;;;;7.99;100.00;101705.53;5021121;28;20462;-50
2021/11/19 00:54:36;;;;;;;0.30;0.20;;;;;;;7.94;100.00;101701.94;5018814;28;20468;-50
2021/11/19 00:57:06;;;;;;;0.30;0.20;;;;;;;8.07;100.00;101695.84;5023559;28;21023;-50
2021/11/19 00:59:35;;;;;;;0.30;0.10;;;;;;;7.99;100.00;101700.22;5025867;28;20507;-50
2021/11/19 01:02:13;;;;;;;0.30;0.20;;;;;;;7.98;100.00;101706.41;5022184;28;20545;-50
2021/11/19 01:04:41;;;;;;;0.30;0.20;;;;;;;8.22;100.00;101706.53;5014197;28;20460;-50
2021/11/19 01:07:09;;;;;;;0.30;0.20;;;;;;;8.20;100.00;101705.59;5025473;28;20601;-50
2021/11/19 01:09:40;;;;;;;0.30;0.30;;;;;;;8.15;100.00;101701.19;5025577;28;20460;-50
2021/11/19 01:12:10;;;;;;;0.30;0.20;;;;;;;8.21;100.00;101695.91;5015388;28;20453;-50
2021/11/19 01:14:43;;;;;;;0.30;0.20;;;;;;;8.19;100.00;101692.34;5024188;28;20496;-50
2021/11/19 01:17:23;;;;;;;1.70;1.60;;;;;;;8.28;100.00;101693.28;5025765;28;20448;-50
2021/11/19 01:20:03;;;;;;;0.30;0.20;;;;;;;8.34;100.00;101692.44;5023051;28;20474;-50
2021/11/19 01:22:33;;;;;;;0.30;0.20;;;;;;;8.30;100.00;101693.28;5018782;28;20487;-50
2021/11/19 01:25:00;;;;;;;0.30;0.13;;;;;;;8.37;100.00;101687.19;5019185;28;20460;-49
2021/11/19 01:27:27;;;;;;;0.30;0.20;;;;;;;8.32;100.00;101686.22;5018860;28;20513;-50
2021/11/19 01:29:54;;;;;;;0.80;0.80;;;;;;;8.37;100.00;101687.19;5018498;28;20453;-50
2021/11/19 01:32:24;;;;;;;0.30;0.20;;;;;;;8.35;100.00;101685.38;5014737;28;20444;-50
2021/11/19 01:34:52;;;;;;;0.30;0.20;;;;;;;8.27;100.00;101693.28;5001333;28;20523;-52
2021/11/19 01:37:20;;;;;;;0.30;0.20;;;;;;;8.41;100.00;101691.59;5024336;28;20491;-50
2021/11/19 01:39:47;;;;;;;0.30;0.20;;;;;;;8.44;100.00;101688.06;5025834;28;20533;-51
2021/11/19 01:42:27;;;;;;;0.30;0.20;;;;;;;8.49;100.00;101683.66;5022817;28;20872;-51
2021/11/19 01:45:16;;;;;;;0.30;0.20;;;;;;;8.44;100.00;101690.72;5022625;28;20505;-51
2021/11/19 01:47:47;;;;;;;0.30;0.20;;;;;;;8.43;100.00;101695.13;5023163;28;20900;-51
2021/11/19 01:50:57;;;;;;;0.30;0.20;;;;;;;8.33;100.00;101691.53;5022657;28;20456;-51
2021/11/19 01:53:37;;;;;;;0.30;0.20;;;;;;;8.36;100.00;101701.31;5003107;28;20456;-50
2021/11/19 01:56:20;;;;;;;0.50;0.50;;;;;;;8.37;100.00;101702.19;5022472;28;20531;-51
2021/11/19 01:59:13;;;;;;;0.30;0.20;;;;;;;8.42;100.00;101706.63;5025303;28;20444;-50
2021/11/19 02:01:45;;;;;;;0.30;0.20;;;;;;;8.61;100.00;101694.28;5022984;28;20883;-51
2021/11/19 02:04:15;;;;;;;0.30;0.20;;;;;;;8.43;100.00;101692.47;5020780;28;20456;-51
2021/11/19 02:07:11;;;;;;;0.30;0.20;;;;;;;8.39;100.00;101698.66;5025321;28;20501;-51
2021/11/19 02:10:18;;;;;;;0.30;0.20;;;;;;;8.29;100.00;101691.53;5028432;28;20465;-50
2021/11/19 02:12:57;;;;;;;0.30;0.20;;;;;;;8.38;100.00;101686.28;4993362;28;20876;-51
2021/11/19 02:15:32;;;;;;;0.30;0.20;;;;;;;8.43;100.00;101681.88;5021824;28;20534;-50
2021/11/19 02:18:14;;;;;;;0.30;0.20;;;;;;;8.36;100.00;101684.50;5026200;28;20800;-50
2021/11/19 02:20:45;;;;;;;0.30;0.20;;;;;;;8.41;100.00;101682.75;5028762;28;20444;-51
2021/11/19 02:23:16;;;;;;;0.30;0.20;;;;;;;8.43;100.00;101678.34;5009487;28;21007;-50
2021/11/19 02:25:50;;;;;;;0.30;0.20;;;;;;;8.41;100.00;101678.34;5021611;28;20467;-50
2021/11/19 02:28:21;;;;;;;0.30;0.20;;;;;;;8.38;100.00;101686.28;5021733;28;20881;-51
2021/11/19 02:30:51;;;;;;;0.30;0.20;;;;;;;8.38;100.00;101681.00;5027931;28;20437;-50
2021/11/19 02:33:19;;;;;;;0.30;0.20;;;;;;;8.47;100.00;101685.41;5028600;28;20856;-50
2021/11/19 02:36:04;;;;;;;0.30;0.20;;;;;;;8.45;100.00;101684.53;5023116;28;20468;-50
2021/11/19 02:38:39;;;;;;;0.30;0.20;;;;;;;8.47;100.00;101690.72;5021425;28;20509;-51
2021/11/19 02:41:07;;;;;;;0.30;0.20;;;;;;;8.46;100.00;101691.59;5022816;28;20445;-51
2021/11/19 02:43:41;;;;;;;0.30;0.20;;;;;;;8.49;100.00;101691.59;5028149;28;20515;-51
2021/11/19 02:46:14;;;;;;;0.30;0.20;;;;;;;8.46;100.00;101689.84;5027851;28;20463;-51
2021/11/19 02:48:40;;;;;;;0.30;0.20;;;;;;;8.46;100.00;101681.88;5027720;28;20452;-51
2021/11/19 02:51:09;;;;;;;0.30;0.20;;;;;;;8.46;100.00;101695.13;5027980;28;20448;-50
2021/11/19 02:53:36;;;;;;;0.30;0.20;;;;;;;8.47;100.00;101699.56;5021698;28;20499;-51
2021/11/19 02:56:03;;;;;;;0.30;0.20;;;;;;;8.50;100.00;101699.59;5021136;28;21053;-50
2021/11/19 02:58:41;;;;;;;0.40;0.27;;;;;;;8.35;100.00;101699.50;5026711;28;20448;-51
2021/11/19 03:01:20;;;;;;;0.30;0.20;;;;;;;8.28;100.00;101695.94;5027734;28;20447;-50
2021/11/19 03:03:50;;;;;;;0.30;0.20;;;;;;;8.28;100.00;101703.00;5023400;28;20449;-50
2021/11/19 03:06:17;;;;;;;0.30;0.20;;;;;;;8.38;100.00;101698.66;5021024;28;20464;-50
2021/11/19 03:08:45;;;;;;;0.30;0.20;;;;;;;8.44;100.00;101703.97;5021240;28;20524;-51
2021/11/19 03:11:13;;;;;;;0.30;0.20;;;;;;;8.46;100.00;101707.50;5004310;28;20463;-51
2021/11/19 03:13:42;;;;;;;0.30;0.20;;;;;;;8.63;100.00;101715.47;5027777;28;20501;-50
2021/11/19 03:16:09;;;;;;;0.30;0.20;;;;;;;8.67;100.00;101706.69;5021330;28;20484;-50
2021/11/19 03:18:37;;;;;;;0.30;0.20;;;;;;;8.57;100.00;101708.41;5020624;28;20515;-50
2021/11/19 03:21:12;;;;;;;0.30;0.20;;;;;;;8.56;100.00;101704.00;5026549;28;20448;-51
2021/11/19 03:23:39;;;;;;;0.30;0.20;;;;;;;8.51;100.00;101705.75;5027429;28;20566;-50
2021/11/19 03:26:06;;;;;;;0.30;0.17;;;;;;;8.52;100.00;101707.53;5023273;28;20517;-50
2021/11/19 03:28:33;;;;;;;0.30;0.20;;;;;;;8.52;100.00;101712.84;5020336;28;20499;-50
2021/11/19 03:31:04;;;;;;;0.30;0.20;;;;;;;8.53;100.00;101704.00;5024424;28;20973;-50
2021/11/19 03:33:34;;;;;;;0.30;0.20;;;;;;;8.48;100.00;101706.63;5027381;28;20495;-51
2021/11/19 03:36:02;;;;;;;0.30;0.20;;;;;;;8.51;100.00;101705.75;5024543;28;21027;-50
2021/11/19 03:38:31;;;;;;;0.30;0.20;;;;;;;8.45;100.00;101703.09;5020413;28;20540;-51
2021/11/19 03:40:59;;;;;;;0.30;0.20;;;;;;;8.42;100.00;101703.97;5022345;28;20456;-51
2021/11/19 03:43:29;;;;;;;0.30;0.20;;;;;;;8.49;100.00;101707.50;5026649;28;20484;-50
2021/11/19 03:46:00;;;;;;;0.30;0.20;;;;;;;8.54;100.00;101695.16;5025926;28;20836;-51
2021/11/19 03:48:27;;;;;;;0.30;0.20;;;;;;;8.45;100.00;101690.72;5020356;28;20452;-50
2021/11/19 03:50:58;;;;;;;0.30;0.20;;;;;;;8.58;100.00;101695.16;5020924;28;20452;-50
2021/11/19 03:53:27;;;;;;;0.30;0.20;;;;;;;8.66;100.00;101689.00;5020629;28;20444;-50
2021/11/19 03:55:56;;;;;;;0.30;0.20;;;;;;;8.68;100.00;101696.06;5019760;28;20473;-51
2021/11/19 03:58:26;;;;;;;0.30;0.20;;;;;;;8.68;100.00;101696.06;5026250;28;20471;-51
2021/11/19 04:00:57;;;;;;;0.30;0.20;;;;;;;8.64;100.00;101699.63;5026273;28;20448;-51
2021/11/19 04:03:25;;;;;;;0.30;0.20;;;;;;;8.60;100.00;101704.00;5024443;28;20583;-51
2021/11/19 04:05:53;;;;;;;0.30;0.20;;;;;;;8.67;100.00;101707.56;5015168;28;20512;-51
2021/11/19 04:08:20;;;;;;;0.30;0.20;;;;;;;8.65;100.00;101704.03;5023614;28;20539;-51
2021/11/19 04:10:51;;;;;;;0.30;0.20;;;;;;;8.71;100.00;101713.75;5026587;28;20455;-50
2021/11/19 04:13:19;;;;;;;0.30;0.20;;;;;;;8.65;100.00;101705.78;5023610;28;20450;-51
2021/11/19 04:15:51;;;;;;;1.77;1.67;;;;;;;8.67;100.00;101701.38;5020144;28;20553;-51
2021/11/19 04:18:18;;;;;;;0.30;0.20;;;;;;;8.66;100.00;101711.09;5021481;28;20449;-51
2021/11/19 04:20:47;;;;;;;0.30;0.20;;;;;;;8.55;100.00;101711.06;5026196;28;20448;-50
2021/11/19 04:23:15;;;;;;;0.30;0.20;;;;;;;8.63;100.00;101710.19;5025419;28;20522;-51
2021/11/19 04:25:42;;;;;;;0.30;0.20;;;;;;;8.66;100.00;101710.22;5019572;28;20495;-51
2021/11/19 04:28:09;;;;;;;0.30;0.20;;;;;;;8.65;100.00;101705.78;5020647;28;20479;-50
2021/11/19 04:30:40;;;;;;;0.30;0.20;;;;;;;8.66;100.00;101710.22;5026175;28;20452;-50
2021/11/19 04:33:07;;;;;;;0.30;0.20;;;;;;;8.60;100.00;101708.41;5026029;28;20952;-50
2021/11/19 04:35:35;;;;;;;2.20;1.50;;;;;;;8.67;100.00;101711.97;5019023;28;20472;-51
2021/11/19 04:38:04;;;;;;;0.30;0.20;;;;;;;8.62;100.00;101706.66;5019702;28;20479;-51
2021/11/19 04:40:35;;;;;;;0.30;0.20;;;;;;;8.69;100.00;101704.91;5019926;28;20462;-51
2021/11/19 04:43:03;;;;;;;0.30;0.20;;;;;;;8.65;100.00;101703.16;5019178;28;21047;-51
2021/11/19 04:45:30;;;;;;;0.60;0.60;;;;;;;8.72;100.00;101703.16;5024415;28;20508;-50
2021/11/19 04:47:57;;;;;;;0.30;0.20;;;;;;;8.74;100.00;101704.03;5025751;28;20447;-51
2021/11/19 04:50:29;;;;;;;0.30;0.20;;;;;;;8.86;100.00;101705.81;5021417;28;20505;-50
2021/11/19 04:52:56;;;;;;;0.30;0.20;;;;;;;8.77;100.00;101704.06;5019321;28;20503;-51
2021/11/19 04:55:23;;;;;;;0.30;0.20;;;;;;;8.77;100.00;101705.78;5022986;28;20469;-51
2021/11/19 04:57:50;;;;;;;0.30;0.20;;;;;;;8.67;100.00;101696.97;5025972;28;20517;-51
2021/11/19 05:00:25;;;;;;;1.17;0.67;;;;;;;8.72;100.00;101697.84;5022093;28;20486;-51
2021/11/19 05:02:52;;;;;;;0.30;0.20;;;;;;;8.74;100.00;101703.16;5025950;28;20554;-51
2021/11/19 05:05:20;;;;;;;0.30;0.20;;;;;;;8.78;100.00;101697.00;5012658;28;20523;-51
2021/11/19 05:07:46;;;;;;;0.30;0.20;;;;;;;8.75;100.00;101692.53;5025691;28;20514;-51
2021/11/19 05:10:13;;;;;;;0.30;0.20;;;;;;;8.72;100.00;101689.00;5024484;28;20447;-51
2021/11/19 05:12:43;;;;;;;2.20;1.30;;;;;;;8.70;100.00;101690.78;5018730;28;20861;-51
2021/11/19 05:15:11;;;;;;;0.30;0.20;;;;;;;8.71;100.00;101693.44;5019110;28;20485;-50
2021/11/19 05:17:38;;;;;;;0.30;0.20;;;;;;;8.68;100.00;101688.13;5025408;28;20452;-51
2021/11/19 05:20:08;;;;;;;0.30;0.20;;;;;;;8.60;100.00;101690.75;5025434;28;20513;-51
2021/11/19 05:22:35;;;;;;;0.30;0.20;;;;;;;8.73;100.00;101691.66;5025282;28;21032;-51
2021/11/19 05:25:04;;;;;;;0.30;0.20;;;;;;;8.76;100.00;101690.78;5025357;28;20499;-50
2021/11/19 05:27:31;;;;;;;0.30;0.20;;;;;;;8.68;100.00;101692.53;5019245;28;20447;-51
2021/11/19 05:29:58;;;;;;;0.30;0.30;;;;;;;8.73;100.00;101696.06;5018813;28;20452;-51
2021/11/19 05:32:24;;;;;;;0.30;0.20;;;;;;;8.69;100.00;101697.84;5023588;28;20448;-50
2021/11/19 05:34:51;;;;;;;0.30;0.20;;;;;;;8.68;100.00;101692.53;5018546;28;20909;-50
2021/11/19 05:37:18;;;;;;;1.00;1.00;;;;;;;8.87;100.00;101689.91;5024379;28;20448;-51
2021/11/19 05:39:44;;;;;;;0.30;0.20;;;;;;;8.80;100.00;101695.22;5025366;28;20458;-50
2021/11/19 05:42:11;;;;;;;0.30;0.20;;;;;;;8.77;100.00;101695.19;5019899;28;20538;-50
2021/11/19 05:44:40;;;;;;;0.30;0.20;;;;;;;8.90;100.00;101694.31;5018739;28;20529;-50
2021/11/19 05:47:09;;;;;;;0.30;0.20;;;;;;;8.94;100.00;101696.13;5023685;28;20498;-50
2021/11/19 05:49:36;;;;;;;0.30;0.20;;;;;;;8.98;100.00;101703.19;5025391;28;20456;-50
2021/11/19 05:52:07;;;;;;;0.30;0.20;;;;;;;8.87;100.00;101699.63;5021135;28;20506;-50
2021/11/19 05:54:35;;;;;;;0.30;0.20;;;;;;;8.84;100.00;101704.94;5018239;28;21151;-50
2021/11/19 05:57:05;;;;;;;0.30;0.20;;;;;;;8.77;100.00;101709.38;5022198;28;21016;-50
2021/11/19 05:59:32;;;;;;;0.30;0.30;;;;;;;8.80;100.00;101711.13;5025266;28;20451;-50
2021/11/19 06:01:59;;;;;;;0.30;0.20;;;;;;;8.78;100.00;101704.94;5022661;28;20823;-50
2021/11/19 06:04:26;;;;;;;0.30;0.20;;;;;;;8.73;100.00;101706.69;5014194;28;20546;-50
2021/11/19 06:06:54;;;;;;;0.30;0.20;;;;;;;8.82;100.00;101704.06;5023082;28;20443;-50
2021/11/19 06:09:28;;;;;;;0.70;0.70;;;;;;;8.74;100.00;101703.16;5017892;28;20500;-50
2021/11/19 06:12:02;;;;;;;1.13;1.13;;;;;;;8.78;100.00;101705.81;5019207;28;20509;-51
2021/11/19 06:14:42;;;;;;;0.30;0.20;;;;;;;8.81;100.00;101711.13;5024874;28;20483;-50
2021/11/19 06:17:13;;;;;;;9.93;2.37;;;;;;;8.83;100.00;101712.00;5024924;28;20443;-51
2021/11/19 06:19:44;;;;;;;0.30;0.20;;;;;;;8.75;100.00;101713.75;5020862;28;20478;-51
2021/11/19 06:22:16;;;;;;;0.70;0.70;;;;;;;8.83;100.00;101713.78;5018757;28;20451;-50
2021/11/19 06:24:46;;;;;;;0.30;0.20;;;;;;;9.00;100.00;101729.69;5020565;28;20465;-50
2021/11/19 06:27:21;;;;;;;0.30;0.20;;;;;;;8.85;100.00;101731.44;5025087;28;20536;-51
2021/11/19 06:29:50;;;;;;;0.30;0.20;;;;;;;9.00;100.00;101738.53;5027784;28;20882;-51
2021/11/19 06:32:17;;;;;;;0.30;0.20;;;;;;;8.83;100.00;101727.91;5021363;28;20517;-51
2021/11/19 06:34:44;;;;;;;0.30;0.20;;;;;;;8.79;100.00;101738.53;5022322;28;20530;-51
2021/11/19 06:37:11;;;;;;;0.40;0.40;;;;;;;8.74;100.00;101737.59;5028390;28;20507;-50
2021/11/19 06:39:41;;;;;;;0.53;0.50;;;;;;;8.69;100.00;101737.59;5027937;28;20448;-50
2021/11/19 06:42:10;;;;;;;0.30;0.20;;;;;;;8.85;100.00;101736.75;5008694;28;20451;-50
2021/11/19 06:44:37;;;;;;;0.43;0.43;;;;;;;8.87;100.00;101740.28;5021166;28;20493;-50
2021/11/19 06:47:05;;;;;;;0.30;0.20;;;;;;;8.83;100.00;101737.63;5027691;28;20511;-50
2021/11/19 06:49:33;;;;;;;0.30;0.20;;;;;;;8.79;100.00;101746.47;5028153;28;20829;-50
2021/11/19 06:52:00;;;;;;;1.17;1.17;;;;;;;8.80;100.00;101748.25;5022749;28;20451;-51
2021/11/19 06:54:31;;;;;;;0.30;0.20;;;;;;;8.86;100.00;101745.59;5021186;28;21040;-50
2021/11/19 06:56:58;;;;;;;0.30;0.20;;;;;;;8.82;100.00;101742.06;5025888;28;20453;-50
2021/11/19 06:59:25;;;;;;;0.30;0.20;;;;;;;8.79;100.00;101750.00;5027809;28;20452;-50
2021/11/19 07:01:52;;;;;;;0.50;0.50;;;;;;;8.77;100.00;101754.44;5023539;28;20447;-50
2021/11/19 07:04:19;;;;;;;0.30;0.20;;;;;;;8.80;100.00;101756.19;5018866;28;20810;-51
2021/11/19 07:06:45;;;;;;;0.30;0.20;;;;;;;8.75;100.00;101753.50;5024652;28;20455;-50
2021/11/19 07:09:14;;;;;;;0.30;0.20;;;;;;;8.74;100.00;101765.00;5020734;28;20456;-50
2021/11/19 07:11:42;;;;;;;0.40;0.30;;;;;;;8.77;100.00;101762.38;5023617;28;20461;-50
2021/11/19 07:14:09;;;;;;;0.30;0.20;;;;;;;8.80;100.00;101775.63;5027552;28;20510;-50
2021/11/19 07:16:36;;;;;;;0.30;0.20;;;;;;;8.84;100.00;101779.19;5025236;28;20451;-50
2021/11/19 07:19:06;;;;;;;0.30;0.20;;;;;;;8.86;100.00;101780.94;5020589;28;20452;-51
2021/11/19 07:21:34;;;;;;;0.30;0.20;;;;;;;8.90;100.00;101784.47;5022571;28;20452;-51
2021/11/19 07:24:00;;;;;;;1.30;1.30;;;;;;;8.88;100.00;101781.81;5027112;28;20551;-50
2021/11/19 07:26:29;;;;;;;1.00;1.00;;;;;;;8.88;100.00;101780.94;5008592;28;20807;-50
2021/11/19 07:28:57;;;;;;;0.30;0.20;;;;;;;8.89;100.00;101786.25;5020613;28;20869;-50
2021/11/19 07:31:24;;;;;;;0.30;0.20;;;;;;;8.88;100.00;101787.13;5021413;28;20502;-50
2021/11/19 07:33:51;;;;;;;0.50;0.47;;;;;;;8.83;100.00;101775.63;5026957;28;20452;-50
2021/11/19 07:36:21;;;;;;;0.80;0.77;;;;;;;8.86;100.00;101773.00;5026808;28;20464;-51
2021/11/19 07:38:48;;;;;;;0.30;0.20;;;;;;;8.89;100.00;101774.75;5026591;28;20488;-51
2021/11/19 07:41:18;;;;;;;0.30;0.20;;;;;;;8.87;100.00;101773.88;5026965;28;20451;-50
2021/11/19 07:43:45;;;;;;;0.30;0.27;;;;;;;8.83;100.00;101778.28;5021219;28;20491;-51
2021/11/19 07:46:14;;;;;;;0.30;0.20;;;;;;;8.87;100.00;101776.53;5020104;28;20507;-50
2021/11/19 07:48:42;;;;;;;0.30;0.20;;;;;;;8.81;100.00;101773.88;5025709;28;20527;-50
2021/11/19 07:51:15;;;;;;;0.30;0.20;;;;;;;8.86;100.00;101774.75;5026594;28;20448;-51
2021/11/19 07:53:42;;;;;;;5.90;1.03;;;;;;;8.92;100.00;101777.44;5023032;28;20454;-50
2021/11/19 07:56:11;;;;;;;0.30;0.20;;;;;;;8.90;100.00;101781.81;5019778;28;20502;-51
2021/11/19 07:58:38;;;;;;;0.40;0.30;;;;;;;8.84;100.00;101776.53;5023558;28;20459;-50
2021/11/19 08:01:06;;;;;;;0.30;0.20;;;;;;;8.89;100.00;101793.31;5028428;28;20452;-50
2021/11/19 08:03:39;;;;;;;0.30;0.20;;;;;;;8.96;100.00;101784.50;5022144;28;20648;-51
2021/11/19 08:06:06;;;;;;;0.30;0.20;;;;;;;8.97;100.00;101791.59;5026340;28;20469;-50
2021/11/19 08:08:35;;;;;;;0.30;0.20;;;;;;;9.03;100.00;101778.31;5024831;28;20452;-51
2021/11/19 08:11:05;;;;;;;0.30;0.20;;;;;;;9.07;100.00;101781.88;5016754;28;20460;-51
2021/11/19 08:13:32;;;;;;;0.30;0.20;;;;;;;9.00;100.00;101785.38;5025607;28;20439;-50
2021/11/19 08:15:59;;;;;;;0.30;0.20;;;;;;;8.91;100.00;101783.63;5019317;28;20525;-51
2021/11/19 08:18:30;;;;;;;0.30;0.20;;;;;;;9.04;100.00;101787.16;5020391;28;20460;-50
2021/11/19 08:20:58;;;;;;;0.30;0.20;;;;;;;9.08;100.00;101786.31;5026166;28;21023;-51
2021/11/19 08:23:36;;;;;;;0.30;0.20;;;;;;;9.12;100.00;101783.66;5026322;28;20488;-50
2021/11/19 08:26:09;;;;;;;0.43;0.40;;;;;;;9.14;100.00;101784.53;5021751;28;20467;-51
2021/11/19 08:28:36;;;;;;;0.30;0.20;;;;;;;9.20;100.00;101788.97;5019580;28;20448;-50
2021/11/19 08:31:06;;;;;;;0.30;0.20;;;;;;;9.48;100.00;101796.06;5022915;28;20484;-50
2021/11/19 08:33:33;;;;;;;0.30;0.20;;;;;;;9.30;100.00;101795.16;5026159;28;20451;-51
2021/11/19 08:36:00;;;;;;;0.30;0.20;;;;;;;9.24;100.00;101795.16;5023235;28;20522;-51
2021/11/19 08:38:28;;;;;;;0.30;0.20;;;;;;;9.22;100.00;101799.59;5019254;28;20448;-50
2021/11/19 08:40:56;;;;;;;0.40;0.33;;;;;;;9.23;100.00;101804.00;5022564;28;20486;-51
2021/11/19 08:43:35;;;;;;;0.30;0.20;;;;;;;9.22;100.00;101799.59;5025780;28;20550;-51
2021/11/19 08:46:04;;;;;;;0.30;0.20;;;;;;;9.12;100.00;101803.97;5025224;28;20467;-51
2021/11/19 08:48:34;;;;;;;0.30;0.20;;;;;;;9.25;100.00;101811.09;5019274;28;20451;-51
2021/11/19 08:51:04;;;;;;;0.80;0.80;;;;;;;9.44;100.00;101801.34;5018589;28;20448;-50
2021/11/19 08:53:30;;;;;;;0.30;0.20;;;;;;;9.43;100.00;101802.25;5025023;28;20954;-50
2021/11/19 08:55:59;;;;;;;0.30;0.20;;;;;;;9.46;100.00;101812.88;5008262;28;20545;-51
2021/11/19 08:58:31;;;;;;;0.30;0.20;;;;;;;9.59;100.00;101811.09;5020732;28;20452;-51
2021/11/19 09:00:59;;;;;;;0.30;0.20;;;;;;;9.59;100.00;101805.78;5019269;28;20449;-51
2021/11/19 09:03:27;;;;;;;0.30;0.20;;;;;;;9.62;100.00;101814.66;5023692;28;20495;-51
2021/11/19 09:05:54;;;;;;;0.30;0.23;;;;;;;9.66;100.00;101804.91;5015638;28;20518;-50
2021/11/19 09:08:24;;;;;;;0.30;0.20;;;;;;;9.75;100.00;101812.88;5022200;28;20992;-49
2021/11/19 09:10:54;;;;;;;0.40;0.40;;;;;;;9.73;100.00;101809.31;5025705;28;20452;-49
2021/11/19 09:13:21;;;;;;;0.30;0.20;;;;;;;9.66;100.00;101804.91;5023545;28;20451;-49
2021/11/19 09:15:50;;;;;;;0.30;0.20;;;;;;;9.75;100.00;101810.22;5018854;28;20529;-49
2021/11/19 09:18:44;;;;;;;0.30;0.20;;;;;;;9.76;100.00;101809.34;5020371;28;20453;-49
2021/11/19 09:21:25;;;;;;;0.30;0.20;;;;;;;9.74;100.00;101812.00;5011221;28;20490;-49
2021/11/19 09:23:55;;;;;;;0.40;0.30;;;;;;;9.71;100.00;101805.78;5019082;28;20863;-49
2021/11/19 09:26:56;;;;;;;0.30;0.20;;;;;;;9.82;100.00;101800.47;5020372;28;20476;-49
2021/11/19 09:29:28;;;;;;;0.30;0.20;;;;;;;9.78;100.00;101811.09;4970725;28;20510;-51
2021/11/19 09:31:56;;;;;;;0.30;0.20;;;;;;;9.71;100.00;101806.66;5021422;28;20451;-48
2021/11/19 09:34:25;;;;;;;0.30;0.20;;;;;;;9.93;100.00;101804.88;5021359;28;20464;-49
2021/11/19 09:36:52;;;;;;;0.30;0.20;;;;;;;10.04;100.00;101807.53;5025755;28;20456;-49
2021/11/19 09:39:25;;;;;;;0.30;0.20;;;;;;;10.29;100.00;101800.41;5023281;28;20451;-49
2021/11/19 09:42:33;;;;;;;0.30;0.20;;;;;;;10.17;100.00;101795.09;5018607;28;20443;-49
2021/11/19 09:45:28;;;;;;;0.30;0.20;;;;;;;10.23;100.00;101796.00;5018673;28;20499;-49
2021/11/19 09:48:30;;;;;;;0.30;0.20;;;;;;;10.14;100.00;101792.44;5018620;28;20531;-49
2021/11/19 09:51:35;;;;;;;0.30;0.20;;;;;;;10.18;100.00;101800.41;5018815;28;20459;-50
2021/11/19 09:54:27;;;;;;;0.30;0.20;;;;;;;10.27;100.00;101804.81;4980932;28;20494;-49
2021/11/19 09:57:14;;;;;;;0.30;0.20;;;;;;;10.34;100.00;101799.50;5010672;28;20952;-49
2021/11/19 09:59:53;;;;;;;0.30;0.20;;;;;;;10.26;100.00;101800.41;5018735;28;20459;-49
2021/11/19 10:02:34;;;;;;;0.30;0.20;;;;;;;10.45;100.00;101794.16;5031147;28;20452;-49
2021/11/19 10:05:35;;;;;;;0.30;0.20;;;;;;;10.47;100.00;101792.38;5015981;28;20516;-49
2021/11/19 10:08:40;;;;;;;0.30;0.20;;;;;;;10.56;100.00;101788.81;4993134;28;20463;-49
2021/11/19 10:11:24;;;;;;;0.30;0.20;;;;;;;10.66;100.00;101793.16;4941792;29;20455;-50
2021/11/19 10:14:00;;;;;;;0.30;0.20;;;;;;;10.82;100.00;101786.88;5025319;28;20506;-50
2021/11/19 10:16:58;;;;;;;0.30;0.20;;;;;;;10.89;100.00;101785.97;5039011;22;20572;-52
2021/11/19 10:19:49;;;;;;;0.30;0.20;;;;;;;10.81;100.00;101781.56;5030511;28;20481;-50
2021/11/19 10:22:24;;;;;;;0.30;0.20;;;;;;;10.76;100.00;101778.94;5055269;28;20497;-50
2021/11/19 10:25:09;;;;;;;0.30;0.20;;;;;;;10.76;100.00;101788.69;5055208;28;20539;-49
2021/11/19 10:27:44;;;;;;;0.30;0.20;;;;;;;10.70;100.00;101775.44;5047471;28;20529;-49
2021/11/19 10:30:17;;;;;;;0.30;0.20;;;;;;;10.73;100.00;101778.97;5048577;28;20553;-51
2021/11/19 10:32:45;;;;;;;0.30;0.20;;;;;;;10.73;100.00;101776.31;5045412;28;20447;-47
2021/11/19 10:35:45;;;;;;;0.30;0.20;;;;;;;10.71;100.00;101769.22;5041879;28;20443;-47
2021/11/19 10:38:36;;;;;;;0.30;0.20;;;;;;;10.70;100.00;101767.47;5041476;28;20451;-47
2021/11/19 10:41:54;;;;;;;0.30;0.20;;;;;;;10.85;100.00;101778.00;5041731;28;20451;-50
2021/11/19 10:44:53;;;;;;;0.30;0.20;;;;;;;10.95;100.00;101774.38;5039326;28;20490;-47
2021/11/19 10:47:19;;;;;;;0.30;0.20;;;;;;;10.90;100.00;101761.13;5035198;28;20467;-47
2021/11/19 10:50:04;;;;;;;0.30;0.20;;;;;;;10.98;100.00;101761.97;5041529;28;20533;-47
2021/11/19 10:52:52;;;;;;;0.30;0.20;;;;;;;10.98;100.00;101761.97;5042334;28;20451;-47
2021/11/19 10:55:38;;;;;;;0.30;0.20;;;;;;;11.14;100.00;101762.75;5032612;28;20450;-47
2021/11/19 10:58:26;;;;;;;0.30;0.20;;;;;;;10.89;100.00;101770.00;5041274;28;20446;-47
2021/11/19 11:01:16;;;;;;;0.30;0.20;;;;;;;11.01;100.00;101766.38;5041352;28;20525;-47
2021/11/19 11:04:04;;;;;;;0.30;0.20;;;;;;;11.01;100.00;101774.38;5043334;28;20452;-47
2021/11/19 11:07:07;;;;;;;0.30;0.20;;;;;;;10.96;100.00;101777.06;5031017;28;20835;-47
2021/11/19 11:09:54;;;;;;;0.30;0.20;;;;;;;11.02;100.00;101765.47;5041336;28;20504;-47
2021/11/19 11:12:26;;;;;;;0.30;0.20;;;;;;;10.96;100.00;101765.50;5041357;28;20459;-47
2021/11/19 11:15:24;;;;;;;0.30;0.20;;;;;;;11.12;100.00;101761.00;5043413;28;20502;-47
2021/11/19 11:18:09;;;;;;;0.30;0.20;;;;;;;11.03;100.00;101755.72;5031059;28;20512;-53
2021/11/19 11:21:02;;;;;;;0.30;0.20;;;;;;;10.97;100.00;101759.31;5040677;28;21049;-47
2021/11/19 11:23:34;;;;;;;0.30;0.20;;;;;;;10.91;100.00;101762.88;5040827;28;20451;-47
2021/11/19 11:26:11;;;;;;;0.30;0.20;;;;;;;11.04;100.00;101752.16;5045382;28;20472;-47
2021/11/19 11:28:47;;;;;;;0.30;0.20;;;;;;;11.24;100.00;101747.59;5047744;28;20455;-48
2021/11/19 11:31:48;;;;;;;0.30;0.20;;;;;;;11.14;100.00;101749.44;5039517;28;20452;-47
2021/11/19 11:34:28;;;;;;;0.30;0.20;;;;;;;11.01;100.00;101749.53;5033273;28;20446;-47
2021/11/19 11:37:13;;;;;;;0.30;0.20;;;;;;;10.98;100.00;101751.31;5040516;28;20551;-47
2021/11/19 11:39:42;;;;;;;0.30;0.20;;;;;;;10.92;100.00;101758.44;5040508;28;20498;-47
2021/11/19 11:42:14;;;;;;;0.30;0.20;;;;;;;11.06;100.00;101735.28;5046141;28;20501;-47
2021/11/19 11:44:42;;;;;;;0.30;0.20;;;;;;;10.98;100.00;101731.81;5046794;28;20536;-47
2021/11/19 11:47:27;;;;;;;0.30;0.20;;;;;;;11.00;100.00;101738.00;5042973;28;20475;-47
2021/11/19 11:49:57;;;;;;;0.30;0.20;;;;;;;11.10;100.00;101742.38;5040601;28;20451;-47